sensor_id;sensor_type;location;lat;lon;timestamp;pressure;altitude;pressure_sealevel;temperature;humidity
10604;BME280;5349;41.554;23.274;2023-02-13T15:25:22;101045.72;;;11.35;36.67
10604;BME280;5349;41.554;23.274;2023-02-13T15:27:51;101039.44;;;11.11;36.77
10604;BME280;5349;41.554;23.274;2023-02-13T15:30:21;101050.84;;;10.95;36.78
10604;BME280;5349;41.554;23.274;2023-02-13T15:32:53;101021.44;;;10.62;37.15
10604;BME280;5349;41.554;23.274;2023-02-13T15:35:23;101051.22;;;10.75;37.26
10604;BME280;5349;41.554;23.274;2023-02-13T15:37:50;101052.78;;;10.60;37.93
10604;BME280;5349;41.554;23.274;2023-02-13T15:40:24;101037.06;;;10.32;38.14
10604;BME280;5349;41.554;23.274;2023-02-13T15:42:51;101058.66;;;10.38;38.00
10604;BME280;5349;41.554;23.274;2023-02-13T15:45:19;101069.69;;;10.26;38.77
10604;BME280;5349;41.554;23.274;2023-02-13T15:47:48;101065.06;;;10.10;39.06
10604;BME280;5349;41.554;23.274;2023-02-13T15:50:17;101068.03;;;10.07;39.38
10604;BME280;5349;41.554;23.274;2023-02-13T15:52:45;101070.88;;;9.96;39.10
10604;BME280;5349;41.554;23.274;2023-02-13T15:55:18;101067.75;;;9.83;39.57
10604;BME280;5349;41.554;23.274;2023-02-13T15:57:46;101074.09;;;9.82;39.22
10604;BME280;5349;41.554;23.274;2023-02-13T16:00:20;101079.34;;;9.74;39.66
10604;BME280;5349;41.554;23.274;2023-02-13T16:02:49;101079.25;;;9.66;40.07
10604;BME280;5349;41.554;23.274;2023-02-13T16:05:18;101079.56;;;9.54;39.40
10604;BME280;5349;41.554;23.274;2023-02-13T16:07:47;101084.84;;;9.46;39.36
10604;BME280;5349;41.554;23.274;2023-02-13T16:10:15;101081.81;;;9.32;40.19
10604;BME280;5349;41.554;23.274;2023-02-13T16:12:46;101078.50;;;9.20;40.12
10604;BME280;5349;41.554;23.274;2023-02-13T16:15:16;101082.88;;;9.12;40.19
10604;BME280;5349;41.554;23.274;2023-02-13T16:17:44;101063.47;;;8.92;40.46
10604;BME280;5349;41.554;23.274;2023-02-13T16:20:20;101075.94;;;8.92;41.25
10604;BME280;5349;41.554;23.274;2023-02-13T16:22:49;101091.63;;;8.95;41.33
10604;BME280;5349;41.554;23.274;2023-02-13T16:25:21;101082.25;;;8.91;41.47
10604;BME280;5349;41.554;23.274;2023-02-13T16:27:51;101090.66;;;8.86;41.17
10604;BME280;5349;41.554;23.274;2023-02-13T16:30:28;101082.97;;;8.83;41.82
10604;BME280;5349;41.554;23.274;2023-02-13T16:33:10;101086.47;;;8.74;41.33
10604;BME280;5349;41.554;23.274;2023-02-13T16:35:38;101058.84;;;8.48;41.82
10604;BME280;5349;41.554;23.274;2023-02-13T16:38:27;101091.84;;;8.65;42.32
10604;BME280;5349;41.554;23.274;2023-02-13T16:40:54;101086.69;;;8.63;42.00
10604;BME280;5349;41.554;23.274;2023-02-13T16:43:38;101096.03;;;8.58;42.47
10604;BME280;5349;41.554;23.274;2023-02-13T16:46:10;101104.31;;;8.55;42.05
10604;BME280;5349;41.554;23.274;2023-02-13T16:48:38;101102.22;;;8.49;42.53
10604;BME280;5349;41.554;23.274;2023-02-13T16:51:05;101095.75;;;8.14;43.97
10604;BME280;5349;41.554;23.274;2023-02-13T16:53:32;101099.66;;;7.91;44.23
10604;BME280;5349;41.554;23.274;2023-02-13T16:56:00;101082.56;;;7.55;45.06
10604;BME280;5349;41.554;23.274;2023-02-13T17:00:54;101095.06;;;7.44;45.10
10604;BME280;5349;41.554;23.274;2023-02-13T17:03:21;101100.06;;;7.28;46.11
10604;BME280;5349;41.554;23.274;2023-02-13T17:05:48;101101.13;;;7.16;46.83
10604;BME280;5349;41.554;23.274;2023-02-13T17:08:15;101096.88;;;7.04;46.87
10604;BME280;5349;41.554;23.274;2023-02-13T17:11:00;101099.06;;;6.90;47.27
10604;BME280;5349;41.554;23.274;2023-02-13T17:13:28;101069.78;;;6.71;47.47
10604;BME280;5349;41.554;23.274;2023-02-13T17:15:56;101093.81;;;6.79;47.85
10604;BME280;5349;41.554;23.274;2023-02-13T17:18:24;101096.59;;;6.77;48.13
10604;BME280;5349;41.554;23.274;2023-02-13T17:20:51;101095.50;;;6.80;47.95
10604;BME280;5349;41.554;23.274;2023-02-13T17:23:20;101087.41;;;6.81;47.34
10604;BME280;5349;41.554;23.274;2023-02-13T17:25:48;101094.84;;;6.87;47.21
10604;BME280;5349;41.554;23.274;2023-02-13T17:28:18;101052.19;;;6.70;47.34
10604;BME280;5349;41.554;23.274;2023-02-13T17:30:46;101102.13;;;6.95;47.78
10604;BME280;5349;41.554;23.274;2023-02-13T17:33:20;101079.97;;;6.75;48.01
10604;BME280;5349;41.554;23.274;2023-02-13T17:35:47;101098.88;;;6.82;48.24
10604;BME280;5349;41.554;23.274;2023-02-13T17:38:14;101101.84;;;6.68;48.39
10604;BME280;5349;41.554;23.274;2023-02-13T17:40:42;101101.34;;;6.53;48.55
10604;BME280;5349;41.554;23.274;2023-02-13T17:43:10;101102.94;;;6.45;49.65
10604;BME280;5349;41.554;23.274;2023-02-13T17:45:37;101101.91;;;6.36;50.10
10604;BME280;5349;41.554;23.274;2023-02-13T17:48:04;101101.78;;;6.38;50.09
10604;BME280;5349;41.554;23.274;2023-02-13T17:50:34;101104.22;;;6.30;50.25
